Time;durP1;ratioP1;P1;durP2;ratioP2;P2;SDS_P1;SDS_P2;PMS_P1;PMS_P2;Temp;Humidity;BMP_temperature;BMP_pressure;BME280_temperature;BME280_humidity;BME280_pressure;Samples;Min_cycle;Max_cycle;Signal;HPM_P1;HPM_P2
2023/03/08 00:01:34;;;;;;;10.00;6.60;;;;;;;1.91;69.06;97457.98;105677;1257;75072;-24
2023/03/08 00:04:03;;;;;;;12.70;7.40;;;;;;;1.81;69.53;97454.41;105926;1255;75876;-25
2023/03/08 00:06:32;;;;;;;9.70;6.70;;;;;;;1.82;69.96;97447.64;105749;1258;74193;-25
2023/03/08 00:09:05;;;;;;;12.50;7.50;;;;;;;2.28;69.03;97450.05;105843;1255;61155;-25
2023/03/08 00:11:33;;;;;;;10.50;6.20;;;;;;;2.52;68.17;97450.84;105811;1267;62058;-25
2023/03/08 00:14:02;;;;;;;8.70;5.40;;;;;;;2.51;67.89;97446.15;105914;1256;74916;-25
2023/03/08 00:16:31;;;;;;;11.80;6.10;;;;;;;2.36;68.26;97440.76;105947;1256;75873;-25
2023/03/08 00:19:00;;;;;;;14.20;7.50;;;;;;;2.23;68.76;97437.19;105928;1255;74100;-25
2023/03/08 00:21:29;;;;;;;11.70;6.00;;;;;;;2.07;69.27;97440.58;105955;1256;61093;-25
2023/03/08 00:23:58;;;;;;;11.90;6.50;;;;;;;1.97;69.69;97432.21;105759;1259;61498;-25
2023/03/08 00:26:27;;;;;;;8.90;4.40;;;;;;;1.90;70.04;97430.48;105776;1254;74192;-25
2023/03/08 00:28:55;;;;;;;8.20;4.70;;;;;;;2.22;69.94;97428.36;105907;1256;75868;-25
2023/03/08 00:31:25;;;;;;;12.00;7.80;;;;;;;2.78;68.35;97429.96;105695;1257;73935;-25
2023/03/08 00:33:55;;;;;;;13.10;8.70;;;;;;;2.92;67.49;97425.79;105760;1258;61096;-25
2023/03/08 00:36:24;;;;;;;8.90;5.90;;;;;;;2.76;67.63;97423.20;105927;1251;61959;-25
2023/03/08 00:38:55;;;;;;;12.20;8.20;;;;;;;2.59;68.03;97427.56;105928;1255;75093;-25
2023/03/08 00:41:23;;;;;;;13.80;8.00;;;;;;;2.46;68.55;97425.79;105792;1254;74782;-25
2023/03/08 00:43:52;;;;;;;10.60;6.10;;;;;;;2.25;69.08;97417.91;105858;1256;74890;-25
2023/03/08 00:46:21;;;;;;;8.10;5.90;;;;;;;2.11;69.69;97418.36;105759;1256;60984;-25
2023/03/08 00:48:55;;;;;;;6.20;4.20;;;;;;;1.97;70.17;97416.80;105834;1257;61558;-25
2023/03/08 00:51:25;;;;;;;14.20;7.80;;;;;;;1.88;70.85;97414.86;105859;1256;75216;-25
2023/03/08 00:53:54;;;;;;;9.70;6.30;;;;;;;2.29;70.28;97411.05;105570;1257;74888;-25
2023/03/08 00:56:22;;;;;;;8.30;4.90;;;;;;;2.68;68.58;97412.70;105876;1253;73983;-25
2023/03/08 00:58:51;;;;;;;10.00;5.40;;;;;;;2.69;68.22;97411.21;105670;1254;62004;-25
2023/03/08 01:01:19;;;;;;;9.30;5.70;;;;;;;2.55;68.66;97411.79;105784;1251;61523;-25
2023/03/08 01:03:50;;;;;;;11.90;6.20;;;;;;;2.40;69.04;97412.15;105839;1260;75174;-25
2023/03/08 01:06:19;;;;;;;9.30;5.90;;;;;;;2.27;69.41;97407.62;105670;1258;75785;-25
2023/03/08 01:08:49;;;;;;;12.40;6.60;;;;;;;2.14;69.74;97404.69;105753;1253;74055;-25
2023/03/08 01:11:20;;;;;;;10.40;5.80;;;;;;;1.97;70.44;97397.64;105808;1253;61192;-25
2023/03/08 01:13:49;;;;;;;8.80;5.70;;;;;;;1.94;70.99;97395.96;105678;1262;61863;-25
2023/03/08 01:16:22;;;;;;;10.50;5.40;;;;;;;2.45;69.88;97399.96;105755;1259;74426;-25
2023/03/08 01:18:51;;;;;;;12.10;5.60;;;;;;;2.68;68.60;97397.77;105680;1266;75831;-25
2023/03/08 01:21:20;;;;;;;11.50;6.90;;;;;;;2.66;68.52;97396.52;105865;1257;74218;-25
2023/03/08 01:23:49;;;;;;;10.50;6.40;;;;;;;2.51;68.78;97396.48;105700;1260;61373;-25
2023/03/08 01:26:20;;;;;;;7.50;5.00;;;;;;;2.41;69.17;97395.13;105626;1266;61587;-25
2023/03/08 01:28:48;;;;;;;12.10;6.40;;;;;;;2.23;69.71;97390.48;105781;1259;75473;-25
2023/03/08 01:31:24;;;;;;;8.10;5.60;;;;;;;2.05;70.45;97389.35;105851;1257;75905;-25
2023/03/08 01:33:55;;;;;;;6.50;3.90;;;;;;;1.98;70.58;97384.91;105503;1263;72344;-24
2023/03/08 01:36:25;;;;;;;13.70;7.30;;;;;;;1.93;71.02;97380.00;105639;1257;61187;-25
2023/03/08 01:38:54;;;;;;;9.60;6.40;;;;;;;2.31;70.70;97378.55;105600;1256;61504;-25
2023/03/08 01:41:25;;;;;;;13.40;7.90;;;;;;;2.68;69.41;97375.52;105926;1254;75396;-24
2023/03/08 01:43:57;;;;;;;8.90;5.70;;;;;;;2.71;68.84;97372.67;105674;1258;75769;-25
2023/03/08 01:46:26;;;;;;;12.60;7.50;;;;;;;2.53;69.01;97367.54;105971;1254;74261;-25
2023/03/08 01:49:07;;;;;;;11.00;6.00;;;;;;;2.38;69.53;97362.96;105923;1256;61160;-25
2023/03/08 01:51:50;;;;;;;14.50;8.50;;;;;;;2.19;70.06;97363.22;105694;1255;61160;-25
2023/03/08 01:54:46;;;;;;;11.40;5.90;;;;;;;2.04;70.58;97359.52;105602;1254;75328;-25
2023/03/08 01:57:24;;;;;;;16.30;8.50;;;;;;;1.90;71.16;97357.08;105703;1266;75470;-25
2023/03/08 02:00:03;;;;;;;9.50;6.00;;;;;;;2.09;71.20;97352.13;105563;1256;73634;-27
2023/03/08 02:02:46;;;;;;;7.90;4.60;;;;;;;2.63;69.54;97349.45;105644;1256;61620;-27
2023/03/08 02:05:15;;;;;;;10.40;6.60;;;;;;;2.78;68.59;97339.28;105490;1253;60997;-27
2023/03/08 02:07:47;;;;;;;10.90;7.10;;;;;;;2.65;68.55;97337.84;105553;1253;75348;-27
2023/03/08 02:10:16;;;;;;;10.80;6.70;;;;;;;2.48;69.12;97334.36;105983;1255;75786;-27
2023/03/08 02:12:48;;;;;;;10.50;6.00;;;;;;;2.31;69.68;97327.41;105733;1254;74370;-25
2023/03/08 02:15:18;;;;;;;13.60;7.30;;;;;;;2.10;70.39;97332.52;105944;1252;61153;-25
2023/03/08 02:17:50;;;;;;;14.90;6.10;;;;;;;1.93;70.93;97333.73;105725;1256;61156;-25
2023/03/08 02:20:21;;;;;;;8.20;5.20;;;;;;;1.87;71.20;97332.80;105707;1251;74015;-25
2023/03/08 02:22:52;;;;;;;7.60;4.90;;;;;;;2.18;71.29;97327.16;105892;1256;75822;-25
2023/03/08 02:25:22;;;;;;;12.60;7.30;;;;;;;2.61;69.57;97321.23;105733;1253;74395;-25
2023/03/08 02:27:52;;;;;;;16.00;6.20;;;;;;;2.67;69.13;97317.30;105650;1253;62071;-25
2023/03/08 02:30:24;;;;;;;13.10;7.40;;;;;;;2.56;69.14;97322.07;105569;1253;61650;-25
2023/03/08 02:32:57;;;;;;;13.90;8.00;;;;;;;2.40;69.54;97311.27;105644;1251;75045;-25
2023/03/08 02:35:28;;;;;;;9.50;6.50;;;;;;;2.20;70.17;97312.64;105873;1251;75824;-25
2023/03/08 02:37:56;;;;;;;14.20;9.10;;;;;;;2.03;70.79;97311.45;105743;1251;72925;-26
2023/03/08 02:40:25;;;;;;;10.90;5.50;;;;;;;1.91;71.22;97311.48;105912;1251;61055;-25
2023/03/08 02:42:55;;;;;;;10.90;6.70;;;;;;;1.98;71.70;97311.13;105724;1258;61901;-25
2023/03/08 02:45:24;;;;;;;11.00;5.90;;;;;;;2.50;70.27;97311.37;105924;1251;75310;-25
2023/03/08 02:47:54;;;;;;;6.40;4.50;;;;;;;2.64;69.53;97315.48;105955;1255;75652;-25
2023/03/08 02:50:22;;;;;;;14.50;6.40;;;;;;;2.56;69.47;97310.63;105894;1257;74053;-25
2023/03/08 02:52:51;;;;;;;9.90;5.30;;;;;;;2.45;69.74;97303.35;105853;1251;60988;-25
2023/03/08 02:55:20;;;;;;;10.30;6.40;;;;;;;2.30;70.38;97304.15;105804;1257;61809;-25
2023/03/08 02:57:49;;;;;;;13.90;8.30;;;;;;;2.10;70.87;97301.81;105926;1254;75138;-25
2023/03/08 03:00:19;;;;;;;13.80;6.90;;;;;;;2.00;71.17;97302.76;105948;1258;74886;-25
2023/03/08 03:02:48;;;;;;;6.20;4.10;;;;;;;1.88;71.88;97300.72;105745;1256;72322;-25
2023/03/08 03:05:16;;;;;;;6.70;4.50;;;;;;;2.26;71.34;97296.92;105920;1256;61104;-25
2023/03/08 03:07:50;;;;;;;11.10;5.70;;;;;;;2.64;69.96;97297.45;105902;1257;61643;-25
2023/03/08 03:10:20;;;;;;;9.70;6.00;;;;;;;2.68;69.57;97300.31;105923;1258;74422;-25
2023/03/08 03:12:49;;;;;;;10.90;6.20;;;;;;;2.55;69.61;97299.77;105763;1251;75522;-25
2023/03/08 03:15:19;;;;;;;11.60;6.90;;;;;;;2.33;70.41;97302.56;105918;1256;74096;-25
2023/03/08 03:17:52;;;;;;;15.80;8.80;;;;;;;2.16;70.84;97301.27;105889;1254;61080;-25
2023/03/08 03:20:20;;;;;;;13.90;7.90;;;;;;;2.08;71.06;97301.34;105712;1252;61849;-25
2023/03/08 03:22:50;;;;;;;15.20;9.00;;;;;;;1.98;71.32;97298.85;105942;1256;75127;-25
2023/03/08 03:25:21;;;;;;;12.30;6.00;;;;;;;1.87;72.12;97290.77;105879;1256;75818;-25
2023/03/08 03:27:50;;;;;;;13.20;6.80;;;;;;;2.37;71.26;97282.21;105911;1252;73965;-25
2023/03/08 03:30:19;;;;;;;9.90;5.20;;;;;;;2.80;69.47;97279.27;105963;1256;61953;-25
2023/03/08 03:32:48;;;;;;;12.60;7.20;;;;;;;2.77;68.97;97277.30;105910;1256;61875;-25
2023/03/08 03:35:21;;;;;;;14.50;6.50;;;;;;;2.48;69.54;97279.16;105827;1257;75337;-25
2023/03/08 03:37:51;;;;;;;11.30;6.80;;;;;;;2.24;70.19;97281.81;105943;1256;76185;-25
2023/03/08 03:40:22;;;;;;;8.30;5.60;;;;;;;2.01;70.71;97273.74;105853;1254;74166;-25
2023/03/08 03:42:55;;;;;;;10.20;6.10;;;;;;;1.75;71.80;97270.71;105720;1256;61158;-25
2023/03/08 03:45:24;;;;;;;10.00;6.40;;;;;;;1.60;72.06;97268.88;105843;1251;61061;-25
2023/03/08 03:47:54;;;;;;;7.70;4.30;;;;;;;1.43;72.72;97262.80;105696;1251;75275;-25
2023/03/08 03:50:23;;;;;;;11.70;6.20;;;;;;;1.50;73.39;97262.25;105656;1254;75849;-25
2023/03/08 03:52:56;;;;;;;17.00;7.90;;;;;;;2.06;71.88;97261.08;105777;1257;74179;-26
2023/03/08 03:55:25;;;;;;;9.00;5.50;;;;;;;2.19;70.89;97263.67;105661;1254;61626;-25
2023/03/08 03:57:59;;;;;;;9.20;6.10;;;;;;;1.94;71.45;97271.87;105706;1255;61652;-25
2023/03/08 04:00:48;;;;;;;7.60;6.00;;;;;;;1.72;72.32;97272.00;105802;1257;75357;-25
2023/03/08 04:03:23;;;;;;;11.70;6.90;;;;;;;1.56;72.57;97269.39;105587;1251;75839;-25
2023/03/08 04:05:52;;;;;;;9.30;6.30;;;;;;;1.36;73.30;97269.24;105599;1256;72911;-25
2023/03/08 04:08:23;;;;;;;8.30;5.00;;;;;;;1.27;73.74;97264.98;105638;1256;62523;-24
2023/03/08 04:10:52;;;;;;;9.80;5.40;;;;;;;1.70;73.26;97268.52;105734;1257;61411;-25
2023/03/08 04:13:21;;;;;;;15.40;6.20;;;;;;;2.12;71.95;97263.86;105780;1255;75398;-25
2023/03/08 04:15:51;;;;;;;11.20;6.40;;;;;;;2.19;71.24;97261.35;105737;1254;75853;-25
2023/03/08 04:18:23;;;;;;;7.80;5.30;;;;;;;1.97;71.68;97262.45;105767;1264;74119;-26
2023/03/08 04:20:51;;;;;;;11.90;6.90;;;;;;;1.79;72.08;97265.13;105646;1257;61237;-27
2023/03/08 04:23:23;;;;;;;14.50;6.90;;;;;;;1.55;72.80;97265.67;105748;1257;61578;-26
2023/03/08 04:25:52;;;;;;;6.40;4.90;;;;;;;1.37;73.60;97260.62;105685;1251;75336;-39
2023/03/08 04:28:22;;;;;;;12.90;6.40;;;;;;;1.56;73.73;97262.73;105871;1256;75870;-25
2023/03/08 04:30:51;;;;;;;14.80;7.50;;;;;;;2.01;72.35;97258.58;105687;1255;72957;-26
2023/03/08 04:33:20;;;;;;;10.50;7.00;;;;;;;2.10;71.61;97254.10;105879;1254;62021;-25
2023/03/08 04:35:49;;;;;;;10.60;5.10;;;;;;;1.95;71.93;97251.10;105927;1257;61826;-25
2023/03/08 04:38:21;;;;;;;11.90;6.70;;;;;;;1.77;72.43;97248.00;105954;1251;75183;-24
2023/03/08 04:41:00;;;;;;;8.90;5.40;;;;;;;1.66;72.81;97240.25;105900;1254;75764;-26
2023/03/08 04:43:33;;;;;;;10.80;5.60;;;;;;;1.47;73.52;97237.04;105713;1251;74198;-25
2023/03/08 04:46:01;;;;;;;11.00;6.30;;;;;;;1.44;73.85;97235.32;105798;1253;61592;-25
2023/03/08 04:48:31;;;;;;;10.30;5.60;;;;;;;1.96;73.02;97236.14;105718;1251;61127;-25
2023/03/08 04:51:01;;;;;;;11.40;5.60;;;;;;;2.28;71.66;97231.35;105755;1251;75297;-24
2023/03/08 04:53:35;;;;;;;13.70;7.40;;;;;;;2.21;71.40;97215.95;105446;1261;75916;-25
2023/03/08 04:56:05;;;;;;;6.90;4.60;;;;;;;2.01;71.67;97222.60;105718;1251;73961;-24
2023/03/08 04:58:34;;;;;;;9.60;6.50;;;;;;;1.75;72.24;97243.52;105656;1251;61143;-24
2023/03/08 05:01:17;;;;;;;12.40;6.80;;;;;;;1.52;72.98;97248.61;105665;1260;61914;-25
2023/03/08 05:03:48;;;;;;;10.20;5.20;;;;;;;1.30;74.00;97253.44;105735;1257;75671;-26
2023/03/08 05:06:22;;;;;;;7.30;4.80;;;;;;;1.52;73.83;97251.31;105727;1257;75839;-25
2023/03/08 05:08:50;;;;;;;7.90;4.20;;;;;;;2.00;72.36;97259.66;105664;1253;74017;-25
2023/03/08 05:11:21;;;;;;;6.70;4.30;;;;;;;2.11;71.65;97265.49;105659;1254;62006;-25
2023/03/08 05:13:52;;;;;;;11.70;7.30;;;;;;;2.02;71.66;97262.54;105342;1253;62208;-25
2023/03/08 05:16:21;;;;;;;11.60;7.10;;;;;;;1.86;72.18;97262.36;105535;1251;75332;-25
2023/03/08 05:18:49;;;;;;;11.60;6.50;;;;;;;1.70;72.98;97261.53;105711;1257;76055;-25
2023/03/08 05:21:20;;;;;;;8.10;5.10;;;;;;;1.64;73.07;97260.23;105632;1257;73261;-25
2023/03/08 05:23:52;;;;;;;12.40;6.80;;;;;;;1.65;73.30;97257.06;105668;1260;62075;-25
2023/03/08 05:26:25;;;;;;;10.10;6.40;;;;;;;2.16;72.38;97252.96;105929;1254;61420;-25
2023/03/08 05:28:54;;;;;;;12.10;7.80;;;;;;;2.35;71.19;97240.43;105591;1254;75371;-25
2023/03/08 05:31:25;;;;;;;13.50;5.80;;;;;;;2.36;71.04;97240.20;105863;1257;75806;-25
2023/03/08 05:33:55;;;;;;;9.40;4.90;;;;;;;2.25;71.14;97244.46;105932;1253;74062;-24
2023/03/08 05:36:30;;;;;;;10.30;6.00;;;;;;;2.01;71.97;97248.11;105914;1251;61136;-24
2023/03/08 05:38:59;;;;;;;9.50;5.30;;;;;;;1.93;72.32;97252.48;105942;1251;61069;-24
2023/03/08 05:49:21;;;;;;;12.30;6.40;;;;;;;2.70;70.19;97257.98;102672;1290;599975;-25
2023/03/08 05:51:50;;;;;;;6.70;4.10;;;;;;;2.59;70.40;97258.79;105104;1264;61175;-26
2023/03/08 05:54:20;;;;;;;9.50;5.70;;;;;;;2.45;70.71;97262.61;105145;1268;61917;-26
2023/03/08 05:56:49;;;;;;;7.50;4.60;;;;;;;2.32;71.17;97255.17;104860;1267;73742;-25
2023/03/08 05:59:25;;;;;;;12.10;6.70;;;;;;;2.22;71.39;97254.08;105138;1268;75125;-25
2023/03/08 06:01:58;;;;;;;8.40;5.00;;;;;;;2.21;71.80;97255.84;103580;1266;1958435;-26
2023/03/08 06:04:34;;;;;;;6.60;4.60;;;;;;;2.40;71.49;97253.94;104880;1269;62512;-26
2023/03/08 06:07:05;;;;;;;9.00;5.50;;;;;;;2.98;69.25;97252.53;105175;1264;61884;-26
2023/03/08 06:09:39;;;;;;;9.30;5.40;;;;;;;3.34;68.25;97246.96;105177;1264;73807;-26
2023/03/08 06:12:11;;;;;;;9.50;6.10;;;;;;;3.39;67.51;97244.66;104866;1264;76366;-26
2023/03/08 06:14:40;;;;;;;6.10;4.40;;;;;;;3.34;67.78;97250.51;104945;1264;74194;-26
2023/03/08 06:17:09;;;;;;;10.10;6.30;;;;;;;3.23;67.80;97254.36;104893;1264;61126;-26
2023/03/08 06:19:41;;;;;;;9.80;5.70;;;;;;;3.17;68.09;97252.21;104825;1265;61814;-26
2023/03/08 06:22:11;;;;;;;11.90;6.60;;;;;;;3.08;68.52;97254.33;105018;1265;73523;-26
2023/03/08 06:24:40;;;;;;;6.60;4.90;;;;;;;3.05;68.75;97261.95;105215;1261;75769;-26
2023/03/08 06:27:09;;;;;;;8.10;5.10;;;;;;;2.95;69.31;97262.39;105257;1261;74226;-26
2023/03/08 06:29:39;;;;;;;5.50;3.50;;;;;;;2.96;69.53;97259.06;105265;1260;61133;-26
2023/03/08 06:32:09;;;;;;;8.10;4.60;;;;;;;3.30;68.96;97260.82;105222;1261;61729;-25
2023/03/08 06:34:40;;;;;;;9.40;5.80;;;;;;;3.73;67.59;97273.70;105534;1257;74779;-25
2023/03/08 06:37:11;;;;;;;8.10;5.40;;;;;;;3.81;67.34;97269.90;105604;1256;75832;-25
2023/03/08 06:39:40;;;;;;;16.30;5.60;;;;;;;3.72;67.54;97270.48;105564;1256;74236;-26
2023/03/08 06:42:09;;;;;;;11.50;7.20;;;;;;;3.56;68.57;97268.52;105546;1256;61080;-26
2023/03/08 06:44:39;;;;;;;8.80;5.20;;;;;;;3.52;69.06;97268.67;105194;1263;61969;-26
2023/03/08 06:47:08;;;;;;;9.60;5.50;;;;;;;3.30;69.94;97277.60;105143;1256;74664;-26
2023/03/08 06:49:36;;;;;;;9.30;5.90;;;;;;;3.23;70.43;97279.55;105113;1257;75573;-26
2023/03/08 06:52:05;;;;;;;9.10;5.70;;;;;;;3.21;70.72;97273.17;105341;1260;72993;-26
2023/03/08 06:54:38;;;;;;;7.60;3.90;;;;;;;3.34;70.77;97279.86;105578;1256;61723;-26
2023/03/08 06:57:07;;;;;;;8.30;4.90;;;;;;;3.87;69.31;97275.83;105617;1256;61891;-25
2023/03/08 06:59:36;;;;;;;8.20;5.00;;;;;;;4.06;68.51;97283.35;105523;1256;74384;-25
2023/03/08 07:02:05;;;;;;;6.80;4.40;;;;;;;4.12;68.12;97286.59;105479;1256;75827;-25
2023/03/08 07:04:34;;;;;;;7.30;4.70;;;;;;;4.00;68.01;97286.80;105527;1256;73189;-26
2023/03/08 07:07:03;;;;;;;11.00;5.50;;;;;;;3.86;68.98;97287.26;105513;1257;61223;-24
2023/03/08 07:09:32;;;;;;;8.60;5.70;;;;;;;3.87;69.19;97291.39;105434;1257;62055;-24
2023/03/08 07:12:01;;;;;;;6.20;4.20;;;;;;;3.73;70.25;97290.02;105654;1260;74479;-26
2023/03/08 07:14:30;;;;;;;6.80;4.30;;;;;;;3.63;71.40;97295.12;105537;1256;76057;-26
2023/03/08 07:16:59;;;;;;;6.80;4.40;;;;;;;3.85;71.52;97293.30;105602;1256;73913;-26
2023/03/08 07:19:28;;;;;;;7.30;4.30;;;;;;;4.30;70.87;97289.48;105220;1257;61898;-25
2023/03/08 07:22:25;;;;;;;9.40;5.00;;;;;;;4.47;70.41;97282.77;102638;1292;601076;-26
2023/03/08 07:24:54;;;;;;;7.20;4.50;;;;;;;4.50;70.69;97285.37;105007;1267;61080;-25
2023/03/08 07:27:27;;;;;;;5.00;3.60;;;;;;;4.48;70.92;97296.20;104759;1271;61580;-26
2023/03/08 07:29:55;;;;;;;5.20;3.90;;;;;;;4.36;71.86;97300.64;104901;1266;73882;-24
2023/03/08 07:32:27;;;;;;;5.30;3.30;;;;;;;4.36;72.52;97297.34;104973;1269;75859;-24
2023/03/08 07:34:56;;;;;;;7.10;4.60;;;;;;;4.89;71.53;97295.83;103442;1270;1999724;-24
2023/03/08 07:37:26;;;;;;;5.80;2.90;;;;;;;5.28;70.33;97294.91;104788;1264;61123;-23
2023/03/08 07:39:54;;;;;;;5.80;3.10;;;;;;;5.29;69.93;97287.91;105641;1259;61902;-23
2023/03/08 07:42:23;;;;;;;7.50;4.40;;;;;;;5.18;70.69;97290.23;105518;1254;73776;-23
2023/03/08 07:44:56;;;;;;;6.50;3.80;;;;;;;5.11;71.16;97285.86;105675;1254;75834;-23
2023/03/08 07:47:24;;;;;;;5.40;3.50;;;;;;;5.04;71.43;97291.63;105701;1259;73197;-23
2023/03/08 07:49:53;;;;;;;3.90;2.70;;;;;;;5.02;71.92;97293.17;105667;1254;61081;-23
2023/03/08 07:52:29;;;;;;;4.40;2.70;;;;;;;5.06;71.86;97290.03;105649;1260;61760;-23
2023/03/08 07:54:58;;;;;;;2.90;1.80;;;;;;;5.48;71.23;97302.28;105217;1263;73795;-23
2023/03/08 07:57:26;;;;;;;4.90;3.00;;;;;;;5.61;70.67;97299.19;105627;1259;75523;-23
2023/03/08 07:59:59;;;;;;;7.00;3.90;;;;;;;5.69;69.85;97295.44;105666;1254;74280;-26
2023/03/08 08:02:28;;;;;;;4.50;3.00;;;;;;;5.62;70.21;97298.83;105617;1254;61631;-25
2023/03/08 08:04:57;;;;;;;6.80;3.90;;;;;;;5.52;70.78;97302.91;105646;1254;62719;-25
2023/03/08 08:07:26;;;;;;;5.10;3.60;;;;;;;5.41;71.17;97295.98;105689;1258;74373;-25
2023/03/08 08:09:54;;;;;;;5.40;3.60;;;;;;;5.35;71.10;97288.45;105642;1259;75877;-25
2023/03/08 08:12:23;;;;;;;5.80;2.30;;;;;;;5.43;71.48;97288.17;105643;1254;74184;-25
2023/03/08 08:14:53;;;;;;;5.50;2.70;;;;;;;5.95;70.37;97297.77;105673;1260;61945;-25
2023/03/08 08:17:21;;;;;;;3.90;2.70;;;;;;;6.19;68.96;97300.00;105608;1259;61888;-25
2023/03/08 08:19:53;;;;;;;4.70;3.30;;;;;;;6.07;68.78;97303.76;105614;1257;74327;-25
2023/03/08 08:22:22;;;;;;;7.50;4.00;;;;;;;5.90;69.40;97307.86;105669;1254;75835;-24
2023/03/08 08:24:54;;;;;;;6.60;3.10;;;;;;;5.72;69.83;97302.25;105619;1254;73744;-24
2023/03/08 08:27:23;;;;;;;10.00;3.80;;;;;;;5.59;70.55;97305.98;105642;1254;61078;-24
2023/03/08 08:29:51;;;;;;;5.80;3.60;;;;;;;5.41;72.08;97305.65;105450;1260;61852;-25
2023/03/08 08:32:22;;;;;;;5.10;2.40;;;;;;;5.35;72.78;97307.16;105623;1259;73549;-25
2023/03/08 08:34:51;;;;;;;5.50;3.10;;;;;;;5.71;72.17;97302.95;105581;1255;74877;-25
2023/03/08 08:37:21;;;;;;;6.00;2.80;;;;;;;6.10;71.26;97306.45;105630;1257;73942;-25
2023/03/08 08:39:51;;;;;;;11.00;2.90;;;;;;;6.21;70.61;97311.63;105523;1256;61158;-24
2023/03/08 08:42:19;;;;;;;6.40;3.70;;;;;;;6.21;71.10;97319.45;105617;1260;62023;-25
2023/03/08 08:44:48;;;;;;;4.60;3.30;;;;;;;6.14;70.83;97316.48;105624;1259;74546;-24
2023/03/08 08:47:17;;;;;;;4.60;2.60;;;;;;;6.10;71.34;97319.20;105606;1256;75953;-24
2023/03/08 08:49:46;;;;;;;5.50;3.90;;;;;;;5.90;71.20;97312.48;105458;1259;74303;-24
2023/03/08 08:52:14;;;;;;;4.80;3.20;;;;;;;5.79;71.66;97322.80;105346;1260;61410;-24
2023/03/08 08:54:43;;;;;;;4.40;3.10;;;;;;;6.07;71.64;97321.69;105231;1260;61817;-24
2023/03/08 08:57:11;;;;;;;3.30;2.90;;;;;;;6.59;69.38;97316.63;105525;1255;74564;-25
2023/03/08 08:59:40;;;;;;;5.00;3.40;;;;;;;6.77;68.68;97318.65;105513;1256;75917;-24
2023/03/08 09:02:10;;;;;;;6.50;3.90;;;;;;;6.72;68.40;97319.23;105491;1256;74160;-24
2023/03/08 09:04:39;;;;;;;6.30;3.80;;;;;;;6.65;68.56;97317.50;105369;1257;62023;-24
2023/03/08 09:07:10;;;;;;;8.90;4.10;;;;;;;6.57;68.54;97314.64;105559;1256;61641;-24
2023/03/08 09:09:39;;;;;;;5.40;3.80;;;;;;;6.56;68.84;97315.40;105366;1260;74375;-25
2023/03/08 09:12:10;;;;;;;7.60;4.80;;;;;;;6.52;67.81;97309.17;105683;1259;74019;-24
2023/03/08 09:14:38;;;;;;;7.40;4.90;;;;;;;6.51;67.77;97312.40;105664;1256;74324;-24
2023/03/08 09:17:07;;;;;;;7.50;4.80;;;;;;;6.64;68.55;97313.39;105640;1256;61147;-24
2023/03/08 09:19:36;;;;;;;8.00;4.50;;;;;;;6.78;67.49;97308.90;105555;1259;61682;-24
2023/03/08 09:22:05;;;;;;;6.30;4.50;;;;;;;6.83;67.13;97306.13;105548;1259;72467;-24
2023/03/08 09:24:34;;;;;;;7.60;4.70;;;;;;;6.91;65.98;97310.08;105581;1256;75842;-24
2023/03/08 09:27:05;;;;;;;6.40;4.50;;;;;;;6.84;65.90;97315.73;105572;1256;74186;-24
2023/03/08 09:29:36;;;;;;;7.60;5.00;;;;;;;6.87;66.51;97319.73;105260;1256;61050;-24
2023/03/08 09:32:06;;;;;;;9.10;5.40;;;;;;;6.91;64.51;97318.00;105643;1255;61077;-24
2023/03/08 09:34:34;;;;;;;8.60;5.20;;;;;;;6.86;64.56;97302.08;105331;1256;72259;-24
2023/03/08 09:37:04;;;;;;;8.70;5.40;;;;;;;6.97;64.19;97302.32;105658;1256;75781;-25
2023/03/08 09:39:34;;;;;;;8.50;5.10;;;;;;;7.11;63.01;97296.25;105659;1256;73205;-25
2023/03/08 09:42:03;;;;;;;7.10;4.50;;;;;;;7.16;63.47;97293.42;105614;1257;61869;-25
2023/03/08 09:44:44;;;;;;;8.40;5.20;;;;;;;7.46;62.50;97291.94;105344;1261;62555;-25
2023/03/08 09:47:32;;;;;;;7.80;5.00;;;;;;;7.67;62.64;97294.54;105585;1256;74094;-25
2023/03/08 09:50:24;;;;;;;8.10;5.40;;;;;;;7.94;61.41;97300.05;105621;1257;75979;-25
2023/03/08 09:52:59;;;;;;;7.70;4.60;;;;;;;7.83;61.02;97298.77;105540;1258;74058;-25
2023/03/08 09:55:33;;;;;;;7.60;4.70;;;;;;;7.88;61.94;97307.29;105445;1262;61820;-25
2023/03/08 09:58:09;;;;;;;9.20;4.80;;;;;;;7.94;60.92;97308.34;105431;1257;62148;-25
2023/03/08 10:00:38;;;;;;;6.80;4.80;;;;;;;7.95;60.60;97307.27;105209;1256;74315;-25
2023/03/08 10:03:34;;;;;;;10.50;6.10;;;;;;;7.79;60.30;97309.98;105567;1260;74919;-25
2023/03/08 10:06:18;;;;;;;9.60;6.50;;;;;;;7.68;62.00;97317.64;105571;1256;74277;-23
2023/03/08 10:09:17;;;;;;;8.90;4.70;;;;;;;7.66;61.91;97311.23;105594;1256;61880;-23
2023/03/08 10:11:57;;;;;;;8.40;5.70;;;;;;;7.53;61.45;97308.17;105614;1259;61807;-24
2023/03/08 10:22:28;;;;;;;8.00;5.10;;;;;;;7.31;62.07;97300.79;102524;1292;599686;-25
2023/03/08 10:25:00;;;;;;;9.50;4.90;;;;;;;7.32;62.02;97299.53;104875;1267;61677;-26
2023/03/08 10:27:33;;;;;;;8.70;5.60;;;;;;;7.49;60.04;97296.36;104805;1267;61625;-25
2023/03/08 10:30:11;;;;;;;8.20;5.20;;;;;;;7.66;59.33;97285.41;104876;1266;73747;-26
2023/03/08 10:32:44;;;;;;;8.30;5.40;;;;;;;7.53;58.90;97288.52;104797;1269;75670;-25
2023/03/08 10:35:13;;;;;;;10.00;5.80;;;;;;;7.46;59.49;97296.05;101534;1264;4592794;-26
2023/03/08 10:37:49;;;;;;;6.60;5.30;;;;;;;7.49;59.66;97287.31;105094;1263;61170;-24
2023/03/08 10:40:20;;;;;;;10.40;5.90;;;;;;;7.42;60.36;97297.52;104899;1263;61008;-24
2023/03/08 10:42:59;;;;;;;8.20;5.30;;;;;;;7.40;60.44;97297.57;104905;1271;72856;-24
2023/03/08 10:45:28;;;;;;;9.90;6.20;;;;;;;7.40;59.63;97292.33;104870;1270;75680;-24
2023/03/08 10:48:02;;;;;;;8.50;4.60;;;;;;;7.44;58.77;97289.03;105071;1263;74155;-24
2023/03/08 10:50:35;;;;;;;12.20;5.10;;;;;;;7.88;59.16;97287.17;104861;1263;61126;-24
2023/03/08 10:53:09;;;;;;;8.80;5.70;;;;;;;8.30;58.38;97282.23;104729;1264;61454;-25
2023/03/08 10:55:58;;;;;;;10.40;6.20;;;;;;;8.75;57.90;97291.36;104759;1270;74702;-25
2023/03/08 10:58:32;;;;;;;9.50;5.10;;;;;;;8.58;56.53;97285.09;104797;1263;74846;-25
2023/03/08 11:01:05;;;;;;;8.60;4.90;;;;;;;8.24;56.53;97286.10;104802;1267;73188;-25
2023/03/08 11:03:34;;;;;;;7.00;4.50;;;;;;;8.04;57.11;97279.92;104865;1266;61080;-25
2023/03/08 11:06:12;;;;;;;8.60;5.40;;;;;;;7.76;57.30;97279.19;105055;1266;61589;-25
2023/03/08 11:08:58;;;;;;;8.80;4.80;;;;;;;7.57;58.39;97281.69;104811;1267;74600;-25
2023/03/08 11:11:27;;;;;;;11.20;6.30;;;;;;;7.41;59.67;97284.30;104688;1266;74827;-23
2023/03/08 11:13:55;;;;;;;8.20;5.60;;;;;;;7.28;60.30;97288.30;104922;1267;74050;-24
2023/03/08 11:16:36;;;;;;;9.10;6.10;;;;;;;7.05;61.39;97292.57;105056;1263;61109;-24
2023/03/08 11:19:14;;;;;;;10.00;6.70;;;;;;;6.84;62.30;97302.30;105055;1263;61851;-24
2023/03/08 11:21:48;;;;;;;7.20;4.70;;;;;;;6.60;62.93;97298.80;105209;1267;74351;-24
2023/03/08 11:24:41;;;;;;;10.40;6.00;;;;;;;6.41;64.78;97305.76;104902;1270;75569;-24
2023/03/08 11:27:52;;;;;;;8.30;5.60;;;;;;;6.33;65.23;97308.34;105229;1266;74033;-24
2023/03/08 11:30:52;;;;;;;9.10;6.20;;;;;;;6.42;64.39;97296.63;104805;1269;61141;-24
2023/03/08 11:33:30;;;;;;;9.50;5.40;;;;;;;6.59;64.62;97301.17;105216;1263;61105;-26
2023/03/08 11:36:12;;;;;;;10.80;5.90;;;;;;;6.66;64.65;97296.13;105252;1263;74558;-24
2023/03/08 11:38:41;;;;;;;7.20;4.90;;;;;;;6.76;63.70;97298.56;105073;1268;75923;-24
2023/03/08 11:41:21;;;;;;;7.60;5.00;;;;;;;6.83;63.39;97295.48;104941;1263;74209;-24
2023/03/08 11:44:08;;;;;;;7.50;5.20;;;;;;;6.84;63.08;97303.84;104871;1262;61168;-25
2023/03/08 11:46:46;;;;;;;11.00;6.40;;;;;;;6.86;62.47;97306.73;105055;1264;61278;-24
2023/03/08 11:49:42;;;;;;;5.40;4.20;;;;;;;6.85;61.77;97305.45;104899;1263;74583;-24
2023/03/08 11:52:39;;;;;;;10.40;6.50;;;;;;;6.85;61.32;97306.98;105127;1267;74849;-24
2023/03/08 11:55:40;;;;;;;8.50;5.10;;;;;;;6.88;60.14;97306.34;105243;1263;74194;-24
2023/03/08 11:58:25;;;;;;;10.90;5.60;;;;;;;7.34;59.27;97295.89;105199;1263;61064;-24
2023/03/08 12:00:58;;;;;;;8.90;5.40;;;;;;;7.93;56.81;97294.95;104798;1270;61801;-24
2023/03/08 12:03:42;;;;;;;7.10;5.10;;;;;;;8.38;57.49;97302.16;104796;1263;73090;-25
2023/03/08 12:06:22;;;;;;;8.60;5.70;;;;;;;8.38;55.10;97296.45;105027;1263;75623;-24
2023/03/08 12:09:04;;;;;;;6.00;3.90;;;;;;;8.08;54.88;97301.48;105347;1260;74216;-24